Murrurundi, Australia
Current Conditions -  °F | °C
As of 9:08 PM on Sunday 23 Nov 2014 (Local Time) from YSTW Reporting Station
Overcast Overcast  
Wind Chill: 77°   Ceiling: 11000
Heat Index: 79°   Visibility: 6mi
Dew Point: 63°   Wind: 13mph
Humidity: 61%   Direction: 130°SE
Pressure: 30.06"   Gusts: NA
Location:  31.76°S, 150.83°E
Report Text: YSTW 231008Z AUTO 13011KT 9999 // SCT022 SCT040 OVC110 25/17 Q1018
Loading
Personal Weather Stations






























Interactive Weather Map New forecast layout! Learn more

10-Day Weather Forecast

Advertisements
Track Severe Weather on mobile